Time;durP1;ratioP1;P1;durP2;ratioP2;P2;SDS_P1;SDS_P2;PMS_P1;PMS_P2;Temp;Humidity;BMP_temperature;BMP_pressure;BME280_temperature;BME280_humidity;BME280_pressure;Samples;Min_cycle;Max_cycle;Signal;HPM_P1;HPM_P2
2023/05/11 00:02:00;;;;;;;26.83;10.77;;;;;;;12.04;61.04;150317.31;5056638;28;20071;-64
2023/05/11 00:04:26;;;;;;;33.35;11.82;;;;;;;12.03;60.32;150314.75;5064348;28;20017;-62
2023/05/11 00:06:52;;;;;;;28.70;12.13;;;;;;;12.05;60.41;150319.84;5064068;28;20086;-64
2023/05/11 00:09:17;;;;;;;31.52;11.57;;;;;;;12.08;60.28;150326.28;5052766;28;20029;-62
2023/05/11 00:11:43;;;;;;;23.05;10.20;;;;;;;12.08;61.11;150326.28;5055468;28;20028;-64
2023/05/11 00:14:08;;;;;;;26.77;11.40;;;;;;;12.06;61.40;150322.44;5063922;28;20100;-64
2023/05/11 00:16:34;;;;;;;27.08;11.70;;;;;;;12.07;62.35;150325.00;5063462;28;20206;-64
2023/05/11 00:18:59;;;;;;;29.73;11.82;;;;;;;12.09;61.49;150328.88;5064055;28;20035;-66
2023/05/11 00:21:25;;;;;;;19.85;11.35;;;;;;;12.05;61.84;150319.84;5063814;28;20052;-65
2023/05/11 00:23:51;;;;;;;27.33;11.30;;;;;;;12.02;61.42;150310.88;5063886;28;20266;-64
2023/05/11 00:26:16;;;;;;;25.42;10.85;;;;;;;12.03;62.43;150314.75;5060307;28;20029;-63
2023/05/11 00:28:42;;;;;;;26.23;11.75;;;;;;;12.00;61.99;150305.72;5047153;28;20017;-64
2023/05/11 00:31:07;;;;;;;24.58;10.95;;;;;;;11.98;62.18;150301.88;5064041;28;20048;-64
2023/05/11 00:33:33;;;;;;;22.90;10.10;;;;;;;12.02;62.06;150310.88;5049923;28;20021;-64
2023/05/11 00:35:59;;;;;;;23.40;10.88;;;;;;;12.01;61.65;150309.56;5052329;28;20111;-64
2023/05/11 00:38:24;;;;;;;17.73;9.25;;;;;;;11.91;60.13;150285.19;5059446;28;20044;-65
2023/05/11 00:40:50;;;;;;;23.73;9.98;;;;;;;11.90;59.47;150282.59;5069832;28;20029;-66
2023/05/11 00:43:16;;;;;;;21.23;9.43;;;;;;;11.89;60.22;150280.00;5043901;28;20364;-65
2023/05/11 00:45:42;;;;;;;21.48;9.55;;;;;;;11.87;59.49;150274.91;5057429;28;20101;-65
2023/05/11 00:48:07;;;;;;;20.30;9.48;;;;;;;11.90;59.86;150281.34;5053527;28;20034;-64
2023/05/11 00:50:34;;;;;;;23.48;10.18;;;;;;;11.91;60.62;150285.19;5030695;28;20508;-65
2023/05/11 00:53:01;;;;;;;22.85;9.93;;;;;;;11.93;60.36;150289.03;5063049;28;20091;-65
2023/05/11 00:55:27;;;;;;;20.90;9.35;;;;;;;11.95;60.29;150292.91;5044228;28;20210;-65
2023/05/11 00:57:53;;;;;;;22.50;9.95;;;;;;;11.94;59.47;150291.59;5063488;28;20029;-65
2023/05/11 01:00:18;;;;;;;19.45;9.55;;;;;;;11.91;59.57;150283.88;5063111;28;20021;-65
2023/05/11 01:02:45;;;;;;;19.00;9.32;;;;;;;11.91;58.90;150285.19;5063344;28;20048;-65
2023/05/11 01:05:10;;;;;;;21.58;9.40;;;;;;;11.89;59.55;150280.00;5063059;28;20111;-64
2023/05/11 01:08:02;;;;;;;16.27;8.90;;;;;;;11.82;59.54;150262.03;5062864;28;20028;-64
2023/05/11 01:10:44;;;;;;;15.15;8.32;;;;;;;11.79;59.75;150254.34;5051449;28;20049;-63
2023/05/11 01:13:28;;;;;;;17.73;9.38;;;;;;;11.88;58.69;150277.44;5063120;28;20098;-63
2023/05/11 01:15:55;;;;;;;15.60;8.98;;;;;;;11.85;58.35;150268.47;5062433;28;20249;-64
2023/05/11 01:18:29;;;;;;;16.40;8.82;;;;;;;11.74;59.11;150242.81;5060194;28;20036;-64
2023/05/11 01:21:00;;;;;;;14.23;8.40;;;;;;;11.77;59.43;150249.19;5057927;28;20036;-63
2023/05/11 01:23:29;;;;;;;18.20;9.20;;;;;;;11.80;59.70;150256.94;5062544;28;20032;-63
2023/05/11 01:26:40;;;;;;;24.00;9.10;;;;;;;11.77;59.98;150249.19;5044733;28;20136;-63
2023/05/11 01:29:14;;;;;;;18.52;8.27;;;;;;;11.75;60.14;150244.09;5062849;28;20028;-64
2023/05/11 01:31:45;;;;;;;17.40;8.90;;;;;;;11.73;60.39;150238.97;5053472;28;20131;-63
2023/05/11 01:34:22;;;;;;;15.77;9.15;;;;;;;11.67;61.13;150223.53;5051774;28;20198;-63
2023/05/11 01:37:04;;;;;;;19.40;9.75;;;;;;;11.77;60.90;150247.94;5062362;28;20048;-63
2023/05/11 01:39:41;;;;;;;18.60;8.85;;;;;;;11.68;60.71;150227.38;5067044;28;20351;-65
2023/05/11 01:42:10;;;;;;;16.02;8.68;;;;;;;11.71;61.49;150233.81;5058961;28;20037;-64
2023/05/11 01:44:43;;;;;;;20.00;8.77;;;;;;;11.71;61.45;150233.81;5060084;28;20028;-64
2023/05/11 01:47:11;;;;;;;16.02;8.30;;;;;;;11.70;60.87;150231.22;5061928;28;20032;-65
2023/05/11 01:49:41;;;;;;;18.67;8.63;;;;;;;11.70;60.90;150231.22;5062328;28;20035;-65
2023/05/11 01:52:08;;;;;;;22.48;8.88;;;;;;;11.70;61.19;150232.53;5060120;28;20040;-64
2023/05/11 01:54:36;;;;;;;16.02;8.30;;;;;;;11.69;60.98;150229.97;5060849;28;20035;-64
2023/05/11 01:57:03;;;;;;;20.05;8.93;;;;;;;11.68;61.14;150226.13;5062270;28;20082;-66
2023/05/11 01:59:31;;;;;;;18.48;10.32;;;;;;;11.54;61.29;150191.44;5062583;28;20094;-65
2023/05/11 02:01:58;;;;;;;15.93;8.93;;;;;;;11.64;62.14;150215.84;5044863;28;20056;-65
2023/05/11 02:04:25;;;;;;;15.25;9.27;;;;;;;11.55;62.54;150195.28;5043213;28;20037;-63
2023/05/11 02:06:52;;;;;;;20.13;9.00;;;;;;;11.58;62.09;150201.72;5055838;28;20074;-64
2023/05/11 02:09:19;;;;;;;16.77;8.30;;;;;;;11.59;62.26;150204.31;5061568;28;20100;-64
2023/05/11 02:11:46;;;;;;;14.77;8.00;;;;;;;11.50;61.83;150182.50;5061042;28;20139;-64
2023/05/11 02:14:13;;;;;;;17.15;8.23;;;;;;;11.62;61.94;150212.00;5061224;28;20082;-64
2023/05/11 02:16:39;;;;;;;20.90;8.48;;;;;;;11.62;61.18;150212.00;5061270;28;20052;-63
2023/05/11 02:19:07;;;;;;;15.15;7.60;;;;;;;11.53;62.20;150190.19;5045703;28;20111;-63
2023/05/11 02:21:54;;;;;;;13.55;8.57;;;;;;;11.62;61.25;150212.00;5041119;28;20021;-65
2023/05/11 02:24:21;;;;;;;13.48;8.32;;;;;;;11.64;61.48;150217.09;5061297;28;20063;-65
2023/05/11 02:26:46;;;;;;;12.30;7.38;;;;;;;11.61;61.61;150209.41;5061655;28;20029;-65
2023/05/11 02:29:12;;;;;;;11.23;7.45;;;;;;;11.64;60.46;150215.84;5062212;28;20091;-64
2023/05/11 02:31:43;;;;;;;11.57;7.32;;;;;;;11.68;59.70;150226.13;5061601;28;20048;-64
2023/05/11 02:34:22;;;;;;;17.15;7.63;;;;;;;11.72;60.27;150236.38;5045375;28;20265;-63
2023/05/11 02:36:50;;;;;;;13.18;7.68;;;;;;;11.74;59.84;150241.50;5055119;28;20309;-64
2023/05/11 02:39:20;;;;;;;16.55;7.50;;;;;;;11.70;59.17;150231.22;5063897;28;20025;-63
2023/05/11 02:41:54;;;;;;;10.48;7.25;;;;;;;11.83;58.99;150264.63;5064665;28;20101;-63
2023/05/11 02:44:23;;;;;;;13.98;7.60;;;;;;;11.72;57.19;150237.66;5049304;28;20056;-63
2023/05/11 02:46:51;;;;;;;13.70;6.82;;;;;;;11.89;57.00;150280.00;5051522;28;20203;-64
2023/05/11 02:49:21;;;;;;;10.70;7.30;;;;;;;11.91;57.20;150285.19;5061762;28;20040;-63
2023/05/11 02:51:49;;;;;;;13.73;7.68;;;;;;;11.91;57.38;150283.88;5060200;28;20028;-63
2023/05/11 02:54:16;;;;;;;13.10;7.13;;;;;;;11.93;57.04;150289.03;5059487;28;20310;-63
2023/05/11 02:56:43;;;;;;;14.32;6.93;;;;;;;11.96;57.43;150295.50;5061452;28;20037;-63
2023/05/11 02:59:09;;;;;;;11.63;7.05;;;;;;;11.95;57.29;150292.91;5061759;28;20028;-63
2023/05/11 03:01:35;;;;;;;10.52;7.22;;;;;;;11.99;57.24;150304.47;5060228;28;20096;-63
2023/05/11 03:04:04;;;;;;;11.25;6.85;;;;;;;12.01;57.61;150308.31;5048277;28;20029;-64
2023/05/11 03:06:32;;;;;;;15.05;6.68;;;;;;;12.02;57.01;150310.88;5063099;28;20091;-63
2023/05/11 03:08:57;;;;;;;13.38;6.55;;;;;;;12.02;57.57;150312.16;5059524;28;20124;-63
2023/05/11 03:11:25;;;;;;;15.82;6.55;;;;;;;12.02;57.43;150310.88;5059728;28;20486;-63
2023/05/11 03:13:52;;;;;;;8.93;6.43;;;;;;;12.06;57.35;150321.16;5065255;28;20031;-64
2023/05/11 03:16:18;;;;;;;12.88;7.10;;;;;;;12.10;57.80;150331.44;5055706;28;20028;-63
2023/05/11 03:18:45;;;;;;;10.35;6.47;;;;;;;12.13;56.07;150339.13;5052708;28;20021;-63
2023/05/11 03:21:13;;;;;;;13.85;6.60;;;;;;;12.14;55.67;150341.72;5052669;28;20048;-64
2023/05/11 03:23:40;;;;;;;9.10;5.95;;;;;;;12.10;56.15;150331.44;5064811;28;20036;-65
2023/05/11 03:26:06;;;;;;;10.60;7.07;;;;;;;12.22;56.40;150360.97;5064683;28;20037;-64
2023/05/11 03:28:33;;;;;;;13.15;6.47;;;;;;;12.20;55.87;150355.81;5064707;28;20021;-64
2023/05/11 03:30:58;;;;;;;10.85;6.47;;;;;;;12.10;55.52;150331.44;5064691;28;20029;-63
2023/05/11 03:33:24;;;;;;;12.63;5.93;;;;;;;12.23;54.24;150364.81;5055410;28;20028;-65
2023/05/11 03:35:51;;;;;;;9.18;6.30;;;;;;;12.30;54.91;150380.19;5049249;28;20032;-64
2023/05/11 03:38:21;;;;;;;10.52;5.68;;;;;;;12.28;55.86;150376.34;5062998;28;20198;-63
2023/05/11 03:40:50;;;;;;;8.65;5.07;;;;;;;12.19;56.00;150354.53;5075589;28;20036;-64
2023/05/11 03:43:18;;;;;;;9.43;5.80;;;;;;;12.40;56.59;150405.94;5064711;28;20028;-64
2023/05/11 03:45:45;;;;;;;10.27;5.70;;;;;;;12.40;56.00;150407.19;5063725;28;20040;-65
2023/05/11 03:48:14;;;;;;;8.18;5.82;;;;;;;12.30;56.09;150380.19;5064223;28;20031;-64
2023/05/11 03:50:41;;;;;;;5.78;5.13;;;;;;;12.43;56.46;150414.88;5064226;28;20037;-64
2023/05/11 03:53:07;;;;;;;13.43;6.30;;;;;;;12.42;56.76;150412.31;5064547;28;20025;-65
2023/05/11 03:55:33;;;;;;;9.23;5.78;;;;;;;12.37;55.17;150398.19;5064112;28;20032;-64
2023/05/11 03:57:59;;;;;;;12.35;6.10;;;;;;;12.41;55.77;150408.47;5050327;28;20364;-65
2023/05/11 04:00:25;;;;;;;9.07;6.15;;;;;;;12.48;55.70;150425.16;5053372;28;20207;-65
2023/05/11 04:02:51;;;;;;;11.43;6.25;;;;;;;12.53;56.28;150439.28;5064449;28;20074;-64
2023/05/11 04:05:18;;;;;;;9.73;5.68;;;;;;;12.60;55.84;150456.00;5064272;28;20041;-65
2023/05/11 04:07:45;;;;;;;10.27;5.50;;;;;;;12.59;54.89;150454.69;5063908;28;20089;-66
2023/05/11 04:10:11;;;;;;;7.38;4.88;;;;;;;12.65;54.67;150467.56;5063576;28;20217;-65
2023/05/11 04:12:36;;;;;;;11.02;5.45;;;;;;;12.69;56.29;150477.84;5063687;28;20055;-65
2023/05/11 04:15:03;;;;;;;9.85;5.63;;;;;;;12.68;55.15;150476.53;5057964;28;20108;-65
2023/05/11 04:17:29;;;;;;;9.52;5.10;;;;;;;12.71;55.49;150482.94;5061055;28;20025;-61
2023/05/11 04:19:55;;;;;;;8.77;5.75;;;;;;;12.77;54.52;150499.66;5064083;28;20029;-64
2023/05/11 04:22:21;;;;;;;11.88;6.22;;;;;;;12.71;55.11;150484.28;5063620;28;20273;-63
2023/05/11 04:24:47;;;;;;;9.38;5.05;;;;;;;12.80;55.43;150506.09;5051602;28;20092;-62
2023/05/11 04:27:12;;;;;;;8.93;5.55;;;;;;;12.88;54.35;150525.34;5059177;28;20325;-64
2023/05/11 04:29:38;;;;;;;16.48;6.15;;;;;;;12.93;53.79;150539.47;5062554;28;20048;-64
2023/05/11 04:32:03;;;;;;;11.55;5.65;;;;;;;13.10;54.63;150580.63;5064050;28;20029;-63
2023/05/11 04:34:29;;;;;;;9.52;5.10;;;;;;;13.14;54.62;150590.91;5045744;28;20104;-63
2023/05/11 04:36:55;;;;;;;6.93;4.75;;;;;;;13.18;53.77;150601.19;5056003;28;20079;-62
2023/05/11 04:39:20;;;;;;;6.45;4.68;;;;;;;13.15;54.78;150593.44;5061224;28;20027;-64
2023/05/11 04:41:46;;;;;;;7.82;5.10;;;;;;;13.34;54.74;150639.69;5071403;28;20048;-62
2023/05/11 04:44:11;;;;;;;10.20;5.00;;;;;;;13.40;53.35;150656.47;5063661;28;20044;-63
2023/05/11 04:46:37;;;;;;;13.05;5.03;;;;;;;13.49;53.96;150677.03;5063143;28;20025;-64
2023/05/11 04:49:04;;;;;;;8.93;4.50;;;;;;;13.56;53.21;150695.03;5063484;28;20049;-64
2023/05/11 04:51:30;;;;;;;7.90;4.90;;;;;;;13.57;50.65;150697.63;5051110;28;20224;-63
2023/05/11 04:53:56;;;;;;;10.05;4.82;;;;;;;13.67;54.27;150723.31;5063244;28;20017;-65
2023/05/11 04:56:21;;;;;;;8.55;4.53;;;;;;;13.69;53.57;150727.16;5062146;28;20025;-64
2023/05/11 04:58:47;;;;;;;10.25;4.38;;;;;;;13.79;52.81;150752.88;5063277;28;20037;-64
2023/05/11 05:01:12;;;;;;;7.55;4.30;;;;;;;13.82;51.26;150760.56;5063384;28;20031;-63
2023/05/11 05:03:38;;;;;;;7.03;4.60;;;;;;;14.01;51.42;150806.84;5052590;28;20041;-64
2023/05/11 05:06:04;;;;;;;11.23;4.28;;;;;;;14.23;51.03;150862.16;5049595;28;20044;-63
2023/05/11 05:08:29;;;;;;;5.90;4.18;;;;;;;14.40;49.50;150904.63;5062383;28;20044;-63
2023/05/11 05:10:55;;;;;;;11.23;4.25;;;;;;;14.36;48.28;150894.31;5062377;28;20025;-63
2023/05/11 05:13:20;;;;;;;6.45;4.10;;;;;;;14.54;48.22;150940.63;5062720;28;20106;-63
2023/05/11 05:15:46;;;;;;;9.02;4.35;;;;;;;14.73;47.22;150988.25;5037359;28;20104;-64
2023/05/11 05:18:12;;;;;;;16.00;4.45;;;;;;;14.81;48.11;151008.84;5062840;28;20024;-63
2023/05/11 05:20:38;;;;;;;8.38;4.13;;;;;;;15.05;48.72;151066.72;5062493;28;20333;-63
2023/05/11 05:23:04;;;;;;;9.65;4.03;;;;;;;15.28;45.47;151124.66;5078693;28;20036;-63
2023/05/11 05:25:30;;;;;;;9.15;4.03;;;;;;;15.68;46.65;151225.06;5046850;28;20024;-64
2023/05/11 05:27:56;;;;;;;6.28;3.53;;;;;;;15.66;44.06;151221.19;5061788;28;20045;-63
2023/05/11 05:30:22;;;;;;;6.97;3.45;;;;;;;15.53;43.67;151189.03;5061386;28;20282;-63
2023/05/11 05:32:47;;;;;;;7.80;3.85;;;;;;;15.66;43.84;151219.88;5046025;28;20029;-65
2023/05/11 05:35:13;;;;;;;8.73;3.22;;;;;;;15.69;42.90;151228.91;5062461;28;20039;-65
2023/05/11 05:37:39;;;;;;;9.27;3.55;;;;;;;16.22;43.66;151361.56;5061756;28;20029;-64
2023/05/11 05:40:05;;;;;;;5.00;2.72;;;;;;;16.02;41.24;151311.34;5071162;28;20039;-64
2023/05/11 05:42:31;;;;;;;5.20;3.10;;;;;;;15.91;41.23;151283.03;5063046;28;20570;-63
2023/05/11 05:44:56;;;;;;;3.22;2.72;;;;;;;15.74;41.23;151239.22;5062318;28;20021;-64
2023/05/11 05:47:22;;;;;;;3.70;2.55;;;;;;;15.54;40.89;151191.56;5061588;28;20214;-64
2023/05/11 05:49:48;;;;;;;5.45;2.60;;;;;;;15.64;40.95;151216.03;5044420;28;20309;-64
2023/05/11 05:52:13;;;;;;;5.10;2.85;;;;;;;15.84;41.75;151266.28;5061645;28;20032;-65
2023/05/11 05:54:39;;;;;;;3.78;2.83;;;;;;;15.99;41.96;151303.63;5062039;28;20067;-65
2023/05/11 05:57:05;;;;;;;3.70;2.53;;;;;;;15.92;40.95;151285.63;5055484;28;20183;-64
2023/05/11 05:59:31;;;;;;;4.38;2.70;;;;;;;15.59;41.06;151203.19;5042980;28;20052;-64
2023/05/11 06:01:56;;;;;;;5.28;3.03;;;;;;;15.62;41.54;151209.56;5061840;28;20298;-64
2023/05/11 06:04:22;;;;;;;6.28;3.30;;;;;;;15.64;41.86;151214.75;5061804;28;20037;-64
2023/05/11 06:06:48;;;;;;;8.10;3.13;;;;;;;15.86;42.17;151271.44;5055318;28;20071;-64
2023/05/11 06:09:14;;;;;;;5.50;3.47;;;;;;;15.74;41.83;151239.22;5061685;28;20340;-63
2023/05/11 06:11:40;;;;;;;6.93;3.47;;;;;;;15.99;42.33;151302.31;5061735;28;20071;-64
2023/05/11 06:14:05;;;;;;;7.50;3.75;;;;;;;16.09;43.27;151328.13;5060997;28;20036;-63
2023/05/11 06:16:31;;;;;;;8.00;3.38;;;;;;;16.19;42.30;151352.59;5061904;28;20029;-64
2023/05/11 06:18:57;;;;;;;7.95;3.25;;;;;;;16.30;42.76;151379.59;5064387;28;20033;-64
2023/05/11 06:21:23;;;;;;;6.07;3.28;;;;;;;16.31;42.22;151383.47;5071414;28;20041;-62
2023/05/11 06:23:49;;;;;;;6.47;3.55;;;;;;;16.19;41.72;151352.59;5066700;28;20025;-64
2023/05/11 06:26:14;;;;;;;6.63;3.70;;;;;;;16.55;42.67;151444.00;5070245;28;20037;-64
2023/05/11 06:28:40;;;;;;;7.43;3.35;;;;;;;16.77;42.42;151498.09;5066285;28;20029;-65
2023/05/11 06:31:06;;;;;;;5.25;3.15;;;;;;;16.92;41.28;151535.53;5069974;28;20060;-64
2023/05/11 06:33:31;;;;;;;6.13;3.15;;;;;;;17.02;42.51;151560.03;5053367;28;20092;-64
2023/05/11 06:35:57;;;;;;;5.22;3.70;;;;;;;17.19;42.95;151602.56;5068293;28;20028;-63
2023/05/11 06:38:22;;;;;;;6.80;3.50;;;;;;;17.18;40.94;151601.22;5067111;28;20056;-63
2023/05/11 06:40:52;;;;;;;4.95;3.20;;;;;;;17.21;39.26;151607.69;5071940;28;20029;-64
2023/05/11 06:43:17;;;;;;;6.40;2.72;;;;;;;17.25;40.51;151619.28;5071865;28;20024;-64
2023/05/11 06:45:46;;;;;;;5.88;2.88;;;;;;;17.20;39.84;151606.41;5070332;28;20428;-65
2023/05/11 06:48:12;;;;;;;5.45;3.05;;;;;;;17.39;39.33;151652.81;5072064;28;20088;-64
2023/05/11 06:50:38;;;;;;;3.00;2.70;;;;;;;17.57;39.58;151697.88;5073316;28;20037;-64
2023/05/11 06:53:04;;;;;;;6.00;2.80;;;;;;;17.73;40.96;151739.16;5075025;28;20035;-65
2023/05/11 06:55:30;;;;;;;4.57;3.35;;;;;;;17.42;39.37;151660.53;5073588;28;20020;-64
2023/05/11 06:57:55;;;;;;;4.60;3.00;;;;;;;17.46;39.39;151670.84;5068560;28;20024;-64
2023/05/11 07:00:21;;;;;;;5.68;2.85;;;;;;;17.80;39.58;151754.63;5012230;28;20032;-63
2023/05/11 07:02:47;;;;;;;3.22;2.38;;;;;;;17.79;40.68;151753.34;5071696;28;20044;-65
2023/05/11 07:05:13;;;;;;;8.43;3.20;;;;;;;17.88;40.39;151775.25;5074129;28;20040;-65
2023/05/11 07:07:38;;;;;;;4.75;2.80;;;;;;;17.93;40.92;151789.50;5072511;28;20043;-64
2023/05/11 07:10:05;;;;;;;7.53;3.20;;;;;;;17.89;39.85;151777.84;5071900;28;20032;-64
2023/05/11 07:12:31;;;;;;;6.28;2.53;;;;;;;17.73;38.17;151739.16;5074396;28;20050;-64
2023/05/11 07:14:56;;;;;;;6.18;2.90;;;;;;;17.45;37.30;151667.00;5069649;28;20322;-65
2023/05/11 07:17:22;;;;;;;7.03;3.13;;;;;;;17.87;39.52;151772.66;5073154;28;20071;-64
2023/05/11 07:19:51;;;;;;;4.20;2.83;;;;;;;18.03;39.73;151814.00;5073782;28;20024;-65
2023/05/11 07:22:17;;;;;;;4.20;2.60;;;;;;;17.81;37.70;151757.22;5071652;28;20059;-64
2023/05/11 07:24:42;;;;;;;4.20;2.75;;;;;;;17.30;37.95;151629.59;5074277;28;20024;-65
2023/05/11 07:27:09;;;;;;;4.22;3.00;;;;;;;17.28;38.13;151624.44;5069761;28;20028;-65
2023/05/11 07:29:34;;;;;;;5.50;3.03;;;;;;;17.84;37.71;151764.94;5074648;28;20261;-64
2023/05/11 07:32:00;;;;;;;3.05;2.60;;;;;;;17.91;36.65;151783.03;5072161;28;20032;-64
2023/05/11 07:34:25;;;;;;;4.05;2.70;;;;;;;17.66;36.82;151721.13;5073337;28;20195;-65
2023/05/11 07:36:51;;;;;;;4.43;3.00;;;;;;;18.10;39.03;151830.78;5059954;28;20286;-64
2023/05/11 07:39:17;;;;;;;7.03;3.25;;;;;;;18.18;36.47;151850.09;5056903;28;20032;-64
2023/05/11 07:41:42;;;;;;;4.85;3.78;;;;;;;18.33;38.50;151887.47;5072136;28;20025;-65
2023/05/11 07:44:09;;;;;;;9.88;3.45;;;;;;;18.40;38.35;151906.84;5075242;28;20113;-66
2023/05/11 07:46:35;;;;;;;4.07;2.88;;;;;;;18.46;38.27;151922.31;5067574;28;20047;-65
2023/05/11 07:49:00;;;;;;;8.13;3.45;;;;;;;18.49;35.58;151928.78;5073888;28;20309;-65
2023/05/11 07:51:26;;;;;;;4.78;2.85;;;;;;;18.87;35.86;152022.97;5068670;28;20033;-65
2023/05/11 07:53:52;;;;;;;3.38;2.60;;;;;;;18.83;35.72;152012.66;5035709;28;20061;-65
2023/05/11 07:56:18;;;;;;;3.65;2.58;;;;;;;18.77;35.75;151999.72;5071050;28;20024;-64
2023/05/11 07:58:44;;;;;;;4.63;2.58;;;;;;;18.62;34.36;151961.03;5026584;28;20424;-65
2023/05/11 08:01:10;;;;;;;4.25;2.38;;;;;;;18.41;34.87;151908.13;5057603;28;20028;-66
2023/05/11 08:03:35;;;;;;;5.20;2.38;;;;;;;18.01;35.41;151808.81;5057972;28;20017;-65
2023/05/11 08:06:02;;;;;;;6.85;2.58;;;;;;;17.97;35.40;151798.53;5061888;28;20044;-65
2023/05/11 08:08:28;;;;;;;3.97;2.55;;;;;;;18.11;36.52;151833.31;5073649;28;20029;-64
2023/05/11 08:10:54;;;;;;;5.00;2.30;;;;;;;17.91;35.92;151784.34;5072407;28;20086;-65
2023/05/11 08:13:20;;;;;;;3.95;2.28;;;;;;;17.77;36.01;151748.16;5074554;28;20052;-65
2023/05/11 08:15:46;;;;;;;4.72;2.60;;;;;;;17.73;35.99;151737.91;5072604;28;20376;-65
2023/05/11 08:18:12;;;;;;;6.55;2.38;;;;;;;17.96;35.49;151795.94;5076107;28;20024;-66
2023/05/11 08:20:38;;;;;;;5.43;2.42;;;;;;;18.28;35.25;151875.88;5032135;28;20052;-66
2023/05/11 08:23:04;;;;;;;3.63;2.22;;;;;;;18.35;35.58;151892.66;5069211;28;20217;-65
2023/05/11 08:25:29;;;;;;;3.10;2.30;;;;;;;18.63;36.09;151964.88;5051679;28;20024;-65
2023/05/11 08:27:55;;;;;;;4.45;2.38;;;;;;;18.86;35.82;152021.66;5070939;28;20045;-66
2023/05/11 08:30:21;;;;;;;6.55;2.65;;;;;;;18.61;36.31;151958.41;5063968;28;20040;-67
2023/05/11 08:32:46;;;;;;;5.13;2.35;;;;;;;18.05;35.10;151819.13;5078534;28;20032;-64
2023/05/11 08:35:12;;;;;;;3.85;2.30;;;;;;;18.20;35.22;151855.25;5063554;28;20036;-66
2023/05/11 08:37:38;;;;;;;5.70;2.50;;;;;;;18.43;34.97;151913.31;5046312;28;20056;-65
2023/05/11 08:40:04;;;;;;;11.30;3.63;;;;;;;18.53;35.28;151939.09;5064940;28;20037;-66
2023/05/11 08:42:34;;;;;;;6.95;2.55;;;;;;;18.51;35.21;151932.63;5065277;28;20085;-65
2023/05/11 08:45:01;;;;;;;4.90;2.30;;;;;;;18.65;33.88;151967.47;5064278;28;20035;-65
2023/05/11 08:47:27;;;;;;;4.40;2.47;;;;;;;18.82;34.00;152010.06;5063195;28;20036;-66
2023/05/11 08:49:53;;;;;;;4.85;2.75;;;;;;;18.93;34.96;152038.50;5030046;28;20024;-66
2023/05/11 08:52:19;;;;;;;3.58;2.40;;;;;;;18.90;35.89;152032.03;5062719;28;20028;-64
2023/05/11 08:54:45;;;;;;;7.43;2.40;;;;;;;18.57;35.05;151949.41;5078340;28;20017;-65
2023/05/11 08:57:13;;;;;;;4.75;2.95;;;;;;;18.66;34.85;151971.34;5058106;28;20084;-66
2023/05/11 08:59:41;;;;;;;3.78;2.20;;;;;;;18.66;34.53;151971.34;5079683;28;20091;-65
2023/05/11 09:02:13;;;;;;;6.03;2.30;;;;;;;19.14;35.39;152092.69;5045438;28;20037;-65
2023/05/11 09:04:39;;;;;;;4.93;2.42;;;;;;;18.80;33.83;152006.19;5054869;28;20017;-66
2023/05/11 09:07:05;;;;;;;3.47;2.03;;;;;;;18.81;33.85;152008.72;5065937;28;20074;-65
2023/05/11 09:09:30;;;;;;;2.97;2.00;;;;;;;18.95;35.04;152044.94;5053228;28;20040;-66
2023/05/11 09:11:56;;;;;;;3.85;1.95;;;;;;;18.84;33.27;152015.19;5077609;28;20016;-66
2023/05/11 09:14:22;;;;;;;3.88;2.88;;;;;;;19.18;36.19;152100.41;5080160;28;20099;-67
2023/05/11 09:16:48;;;;;;;7.28;2.00;;;;;;;18.73;33.51;151989.41;5063018;28;20060;-68
2023/05/11 09:19:17;;;;;;;3.65;1.85;;;;;;;18.98;34.04;152051.38;5061178;28;20071;-66
2023/05/11 09:21:43;;;;;;;2.00;1.80;;;;;;;18.42;34.01;151912.00;5067957;28;20032;-65
2023/05/11 09:24:12;;;;;;;4.70;1.50;;;;;;;18.68;33.46;151975.22;5067838;28;20031;-67
2023/05/11 09:26:38;;;;;;;4.25;2.10;;;;;;;18.79;33.96;152004.88;5066186;28;20024;-66
2023/05/11 09:29:03;;;;;;;4.55;2.83;;;;;;;18.83;34.97;152012.66;5066375;28;20044;-66
2023/05/11 09:31:46;;;;;;;3.50;2.38;;;;;;;18.78;36.38;152002.31;5066197;28;20032;-66
2023/05/11 09:34:13;;;;;;;3.90;3.00;;;;;;;18.59;36.12;151953.28;5070806;28;20058;-67
2023/05/11 09:36:43;;;;;;;5.75;2.92;;;;;;;18.44;36.67;151917.16;5067417;28;20047;-66
2023/05/11 09:39:08;;;;;;;5.63;2.80;;;;;;;18.30;36.66;151881.06;5071479;28;20021;-66
2023/05/11 09:41:34;;;;;;;3.47;2.80;;;;;;;18.26;38.04;151870.75;5072491;28;20024;-65
2023/05/11 09:44:10;;;;;;;5.15;2.78;;;;;;;18.18;39.66;151850.09;5069171;28;20478;-65
2023/05/11 09:46:43;;;;;;;3.10;1.90;;;;;;;16.78;41.68;151500.69;5068587;28;20029;-67
2023/05/11 09:49:10;;;;;;;5.57;2.20;;;;;;;17.01;41.63;151558.69;5067092;28;20020;-65
2023/05/11 09:51:39;;;;;;;3.83;2.08;;;;;;;17.27;41.22;151623.13;5070641;28;20028;-65
2023/05/11 09:54:21;;;;;;;4.38;2.28;;;;;;;17.32;42.48;151636.03;5068090;28;20033;-65
2023/05/11 09:56:46;;;;;;;;;;;;;;;17.32;45.95;151636.03;5070894;28;20039;-65
2023/05/11 09:59:14;;;;;;;7.70;2.40;;;;;;;17.30;42.65;151630.91;5069247;28;19912;-65
2023/05/11 10:01:40;;;;;;;3.92;1.95;;;;;;;17.67;42.01;151722.38;5067406;28;20029;-65
2023/05/11 10:04:09;;;;;;;5.50;2.55;;;;;;;17.94;41.20;151792.09;5069965;28;20038;-66
2023/05/11 10:06:53;;;;;;;3.20;1.85;;;;;;;18.10;39.75;151830.78;5070592;28;20037;-65
2023/05/11 10:09:23;;;;;;;3.63;1.70;;;;;;;18.22;38.69;151860.41;5068340;28;20028;-68
2023/05/11 10:11:50;;;;;;;9.48;2.30;;;;;;;18.50;39.33;151930.03;5068970;28;20024;-64
2023/05/11 10:14:17;;;;;;;3.63;1.75;;;;;;;18.51;38.54;151933.91;5071667;28;20043;-66
2023/05/11 10:16:43;;;;;;;2.50;1.48;;;;;;;18.75;39.22;151994.53;5070033;28;20029;-64
2023/05/11 10:19:10;;;;;;;2.33;1.85;;;;;;;18.57;38.43;151949.41;5070579;28;20032;-66
2023/05/11 10:21:37;;;;;;;2.95;2.13;;;;;;;18.74;39.42;151990.69;5070857;28;20325;-66
2023/05/11 10:24:03;;;;;;;2.40;1.95;;;;;;;18.58;39.96;151952.00;5071689;28;20041;-65
2023/05/11 10:26:30;;;;;;;6.03;1.80;;;;;;;18.46;40.38;151921.03;5068699;28;20094;-65
2023/05/11 10:28:59;;;;;;;3.33;2.00;;;;;;;18.32;41.81;151884.94;5066167;28;20043;-65
2023/05/11 10:31:25;;;;;;;2.67;2.00;;;;;;;18.36;41.21;151896.53;5045817;28;20031;-66
2023/05/11 10:33:51;;;;;;;2.33;2.13;;;;;;;18.44;40.78;151917.16;5068010;28;20244;-65
2023/05/11 10:36:17;;;;;;;4.60;2.00;;;;;;;18.53;40.85;151939.09;5070914;28;20025;-66
2023/05/11 10:38:43;;;;;;;2.60;2.20;;;;;;;18.71;41.28;151984.25;5063024;28;20055;-65
2023/05/11 10:41:33;;;;;;;2.80;1.98;;;;;;;18.72;41.33;151985.53;5066044;28;20021;-66
2023/05/11 10:44:53;;;;;;;4.40;2.00;;;;;;;18.59;40.82;151954.56;5071696;28;20020;-67
2023/05/11 10:47:41;;;;;;;5.50;2.53;;;;;;;18.14;41.71;151839.78;5037937;28;20052;-67
2023/05/11 10:50:40;;;;;;;3.92;2.13;;;;;;;18.11;39.75;151834.63;5042018;28;20369;-65
2023/05/11 10:53:27;;;;;;;2.75;1.63;;;;;;;17.88;39.58;151776.53;5069409;28;20033;-67
2023/05/11 10:56:13;;;;;;;3.58;1.75;;;;;;;17.67;39.71;151723.72;5071939;28;20082;-66
2023/05/11 10:58:51;;;;;;;2.75;1.70;;;;;;;17.48;39.61;151674.72;5070890;28;20070;-67
2023/05/11 11:01:43;;;;;;;1.90;1.70;;;;;;;17.25;40.05;151619.28;5071548;28;20029;-66
2023/05/11 11:04:13;;;;;;;4.60;2.00;;;;;;;17.17;40.43;151598.69;5069665;28;20111;-67
2023/05/11 11:06:42;;;;;;;2.95;1.80;;;;;;;16.67;41.22;151473.63;5066968;28;20052;-66
2023/05/11 11:09:12;;;;;;;3.55;1.90;;;;;;;16.39;47.07;151402.81;5071225;28;20033;-66
2023/05/11 11:11:46;;;;;;;5.50;2.22;;;;;;;15.87;51.98;151272.72;5066150;28;20093;-66
2023/05/11 11:14:16;;;;;;;6.93;2.17;;;;;;;15.21;57.43;151107.94;5068404;28;20025;-67
2023/05/11 11:17:14;;;;;;;6.10;1.90;;;;;;;14.16;64.77;150845.44;5066826;28;20037;-65
2023/05/11 11:19:39;;;;;;;5.50;2.60;;;;;;;14.58;65.58;150950.91;5044099;28;20045;-65
2023/05/11 11:22:25;;;;;;;3.20;2.17;;;;;;;14.22;65.62;150860.84;5069488;28;20031;-65
2023/05/11 11:24:51;;;;;;;3.78;2.13;;;;;;;13.73;68.80;150737.44;5064604;28;20043;-66
2023/05/11 11:27:16;;;;;;;3.40;1.95;;;;;;;13.63;68.85;150713.03;5069843;28;20025;-66